Time;durP1;ratioP1;P1;durP2;ratioP2;P2;SDS_P1;SDS_P2;PMS_P1;PMS_P2;Temp;Humidity;BMP_temperature;BMP_pressure;BME280_temperature;BME280_humidity;BME280_pressure;Samples;Min_cycle;Max_cycle;Signal;HPM_P1;HPM_P2
2022/06/17 00:00:59;;;;;;;5.18;2.72;;;14.40;99.90;;;;;;5011140;28;20440;-77
2022/06/17 00:03:27;;;;;;;4.72;2.78;;;14.40;99.90;;;;;;5004726;28;20077;-77
2022/06/17 00:05:58;;;;;;;2.90;2.60;;;14.40;99.90;;;;;;5010062;28;20046;-77
2022/06/17 00:08:45;;;;;;;2.90;2.50;;;14.40;99.90;;;;;;5002927;28;20033;-77
2022/06/17 00:11:24;;;;;;;3.65;2.97;;;14.30;99.90;;;;;;5003514;28;20467;-77
2022/06/17 00:13:50;;;;;;;3.13;2.78;;;14.30;99.90;;;;;;5009912;28;20029;-77
2022/06/17 00:16:19;;;;;;;3.75;3.25;;;14.30;99.90;;;;;;5010876;28;20038;-77
2022/06/17 00:18:44;;;;;;;4.32;3.40;;;14.30;99.90;;;;;;5011070;28;20029;-78
2022/06/17 00:21:35;;;;;;;6.53;3.50;;;14.20;99.90;;;;;;5010952;28;20026;-77
2022/06/17 00:24:10;;;;;;;4.78;3.13;;;14.10;99.90;;;;;;5014601;23;20042;-78
2022/06/17 00:26:35;;;;;;;4.68;2.95;;;14.00;99.90;;;;;;4994984;28;20026;-78
2022/06/17 00:29:01;;;;;;;4.28;3.00;;;13.90;99.90;;;;;;4994684;28;20117;-78
2022/06/17 00:31:27;;;;;;;4.63;3.38;;;13.90;99.90;;;;;;4994899;28;20035;-78
2022/06/17 00:33:53;;;;;;;3.00;2.75;;;13.90;99.90;;;;;;4995507;28;20046;-78
2022/06/17 00:36:18;;;;;;;3.28;2.95;;;13.90;99.90;;;;;;4994933;28;20026;-78
2022/06/17 00:38:46;;;;;;;4.03;3.00;;;13.80;99.90;;;;;;4994575;28;20053;-78
2022/06/17 00:41:26;;;;;;;3.70;2.90;;;13.80;99.90;;;;;;4994918;28;20088;-79
2022/06/17 00:43:51;;;;;;;5.95;3.13;;;13.70;99.90;;;;;;4988398;28;20025;-78
2022/06/17 00:46:29;;;;;;;3.58;3.00;;;13.70;99.90;;;;;;4994603;28;20030;-78
2022/06/17 00:49:15;;;;;;;4.15;2.95;;;13.60;99.90;;;;;;4994995;28;20117;-78
2022/06/17 00:51:55;;;;;;;3.65;3.03;;;13.60;99.90;;;;;;4994677;28;20464;-78
2022/06/17 00:54:25;;;;;;;3.15;2.60;;;13.60;99.90;;;;;;4997381;28;20027;-78
2022/06/17 00:56:51;;;;;;;3.85;3.15;;;13.50;99.90;;;;;;4994742;28;20077;-78
2022/06/17 00:59:17;;;;;;;4.00;3.25;;;13.40;99.90;;;;;;4994884;28;20022;-78
2022/06/17 01:02:07;;;;;;;3.20;2.90;;;13.30;99.90;;;;;;4994676;28;20480;-78
2022/06/17 01:04:38;;;;;;;4.03;2.67;;;13.30;99.90;;;;;;4994173;28;20026;-78
2022/06/17 01:07:25;;;;;;;4.38;3.45;;;13.20;99.90;;;;;;4994346;28;20085;-78
2022/06/17 01:09:57;;;;;;;3.40;2.90;;;13.10;99.90;;;;;;4994261;28;20093;-78
2022/06/17 01:12:45;;;;;;;4.47;3.50;;;13.10;99.90;;;;;;4994342;28;20033;-78
2022/06/17 01:15:17;;;;;;;5.05;3.85;;;13.00;99.90;;;;;;4993668;28;20537;-78
2022/06/17 01:17:43;;;;;;;4.82;3.13;;;13.00;99.90;;;;;;4994401;28;20603;-78
2022/06/17 01:20:11;;;;;;;5.28;3.25;;;13.10;99.90;;;;;;4994123;28;20018;-78
2022/06/17 01:22:49;;;;;;;4.10;3.13;;;13.00;99.90;;;;;;4996201;23;20047;-83
2022/06/17 01:25:18;;;;;;;6.10;3.60;;;12.90;99.90;;;;;;5012858;28;20034;-84
2022/06/17 01:27:50;;;;;;;6.00;3.58;;;12.80;99.90;;;;;;5013744;28;20026;-83
2022/06/17 01:30:32;;;;;;;6.68;3.47;;;12.70;99.90;;;;;;5007645;28;20054;-84
2022/06/17 01:33:06;;;;;;;4.28;2.90;;;12.60;99.90;;;;;;5007595;28;20034;-85
2022/06/17 01:35:52;;;;;;;4.10;2.75;;;12.50;99.90;;;;;;5013530;28;20018;-86
2022/06/17 01:38:20;;;;;;;3.25;2.95;;;12.50;99.90;;;;;;5013436;28;20092;-85
2022/06/17 01:40:46;;;;;;;3.70;2.85;;;12.50;99.90;;;;;;5012964;28;20030;-84
2022/06/17 01:43:15;;;;;;;6.07;3.13;;;12.50;99.90;;;;;;5013023;28;20033;-84
2022/06/17 01:45:47;;;;;;;6.65;3.90;;;12.50;99.90;;;;;;5013839;28;20024;-84
2022/06/17 01:48:17;;;;;;;3.58;2.80;;;12.50;99.90;;;;;;5011854;28;20052;-84
2022/06/17 01:50:45;;;;;;;3.83;3.10;;;12.50;99.90;;;;;;5013184;28;20053;-84
2022/06/17 01:53:19;;;;;;;4.97;3.53;;;12.40;99.90;;;;;;5012953;28;20348;-84
2022/06/17 01:55:52;;;;;;;3.78;3.20;;;12.30;99.90;;;;;;5013080;28;20073;-83
2022/06/17 01:58:26;;;;;;;4.05;2.88;;;12.20;99.90;;;;;;5013243;28;20065;-84
2022/06/17 02:00:52;;;;;;;5.22;3.00;;;12.10;99.90;;;;;;5013122;28;20065;-84
2022/06/17 02:03:28;;;;;;;3.78;3.47;;;12.00;99.90;;;;;;5012821;28;20050;-84
2022/06/17 02:06:06;;;;;;;3.15;2.50;;;11.90;99.90;;;;;;5012978;28;20370;-84
2022/06/17 02:08:32;;;;;;;4.72;3.72;;;11.80;99.90;;;;;;5013070;28;20495;-84
2022/06/17 02:10:58;;;;;;;5.78;3.60;;;11.70;99.90;;;;;;5012727;28;20060;-84
2022/06/17 02:13:24;;;;;;;5.63;4.25;;;11.80;99.90;;;;;;5012694;28;20828;-84
2022/06/17 02:15:52;;;;;;;6.28;3.97;;;11.80;99.90;;;;;;5012529;28;20032;-84
2022/06/17 02:18:19;;;;;;;6.68;3.88;;;11.80;99.90;;;;;;5005964;28;20045;-84
2022/06/17 02:20:51;;;;;;;5.50;4.25;;;11.80;99.90;;;;;;5012899;28;20038;-84
2022/06/17 02:23:17;;;;;;;7.75;3.90;;;11.80;99.90;;;;;;5034059;22;20116;-79
2022/06/17 02:25:48;;;;;;;3.55;3.25;;;11.80;99.90;;;;;;5007849;28;20480;-78
2022/06/17 02:28:16;;;;;;;3.33;2.92;;;11.70;99.90;;;;;;4992605;28;20102;-79
2022/06/17 02:30:43;;;;;;;3.45;2.97;;;11.70;99.90;;;;;;4991314;28;20030;-78
2022/06/17 02:33:10;;;;;;;4.22;2.63;;;11.70;99.90;;;;;;4992291;28;20022;-79
2022/06/17 02:35:54;;;;;;;3.60;2.97;;;11.80;99.90;;;;;;4992662;28;20117;-79
2022/06/17 02:38:25;;;;;;;5.65;2.95;;;11.70;99.90;;;;;;4985822;28;20033;-78
2022/06/17 02:40:59;;;;;;;5.05;3.20;;;11.60;99.90;;;;;;4992505;28;20042;-79
2022/06/17 02:43:32;;;;;;;4.75;3.03;;;11.60;99.90;;;;;;4992205;28;20041;-79
2022/06/17 02:46:23;;;;;;;3.67;2.90;;;11.60;99.90;;;;;;4991696;28;20029;-78
2022/06/17 02:48:58;;;;;;;3.50;2.67;;;11.50;99.90;;;;;;4992372;28;20104;-79
2022/06/17 02:51:25;;;;;;;3.25;2.88;;;11.40;99.90;;;;;;4992654;28;20019;-79
2022/06/17 02:53:51;;;;;;;3.13;2.83;;;11.50;99.90;;;;;;4996188;28;20026;-78
2022/06/17 02:56:24;;;;;;;8.05;3.58;;;11.50;99.90;;;;;;4992584;28;20019;-78
2022/06/17 02:58:51;;;;;;;4.43;3.13;;;11.40;99.90;;;;;;4992288;28;20029;-79
2022/06/17 03:01:25;;;;;;;3.13;2.83;;;11.40;99.90;;;;;;4992089;28;20022;-79
2022/06/17 03:03:53;;;;;;;3.38;3.00;;;11.30;99.90;;;;;;4991027;28;20563;-78
2022/06/17 03:06:38;;;;;;;6.63;3.08;;;11.30;99.90;;;;;;4992086;28;20084;-79
2022/06/17 03:09:18;;;;;;;5.70;2.95;;;11.30;99.90;;;;;;4991917;28;20025;-79
2022/06/17 03:11:49;;;;;;;5.97;3.63;;;11.30;99.90;;;;;;4992076;28;20482;-78
2022/06/17 03:14:16;;;;;;;3.78;3.15;;;11.30;99.90;;;;;;4991541;28;20076;-78
2022/06/17 03:16:42;;;;;;;4.07;3.67;;;11.30;99.90;;;;;;4992170;28;20029;-79
2022/06/17 03:19:09;;;;;;;3.70;2.88;;;11.40;99.90;;;;;;4991911;28;20022;-78
2022/06/17 03:21:35;;;;;;;5.05;3.35;;;11.40;99.90;;;;;;4992225;28;20057;-78
2022/06/17 03:24:05;;;;;;;3.67;3.08;;;11.30;99.90;;;;;;5018098;23;20537;-82
2022/06/17 03:26:44;;;;;;;3.58;3.13;;;11.30;99.90;;;;;;4986148;28;20039;-83
2022/06/17 03:29:13;;;;;;;3.90;3.55;;;11.30;99.90;;;;;;4990812;28;20426;-83
2022/06/17 03:31:52;;;;;;;3.53;3.00;;;11.20;99.90;;;;;;4990720;28;20189;-83
2022/06/17 03:34:23;;;;;;;5.68;3.50;;;11.20;99.90;;;;;;4991243;28;20054;-82
2022/06/17 03:36:59;;;;;;;5.90;3.53;;;11.10;99.90;;;;;;4990127;28;20080;-82
2022/06/17 03:39:37;;;;;;;4.50;3.55;;;11.10;99.90;;;;;;4991078;28;20088;-83
2022/06/17 03:42:06;;;;;;;5.80;3.80;;;11.00;99.90;;;;;;4996505;28;20145;-83
2022/06/17 03:44:43;;;;;;;3.80;3.40;;;11.00;99.90;;;;;;4991584;28;20137;-83
2022/06/17 03:47:30;;;;;;;4.47;3.38;;;11.00;99.90;;;;;;4991443;28;20033;-83
2022/06/17 03:50:05;;;;;;;3.80;3.38;;;10.90;99.90;;;;;;4991496;28;20051;-84
2022/06/17 03:52:46;;;;;;;5.28;3.90;;;10.90;99.90;;;;;;4991360;28;20022;-83
2022/06/17 03:55:17;;;;;;;9.35;3.65;;;10.90;99.90;;;;;;4991427;28;20026;-84
2022/06/17 03:57:46;;;;;;;6.40;3.13;;;10.80;99.90;;;;;;4990948;28;20033;-83
2022/06/17 04:00:39;;;;;;;4.90;3.28;;;10.80;99.90;;;;;;4990056;28;20348;-83
2022/06/17 04:03:10;;;;;;;4.95;3.00;;;10.70;99.90;;;;;;4987075;28;20526;-83
2022/06/17 04:05:38;;;;;;;3.67;3.15;;;10.80;99.90;;;;;;4994472;28;20019;-84
2022/06/17 04:08:04;;;;;;;3.40;3.10;;;10.80;99.90;;;;;;4990221;28;20030;-84
2022/06/17 04:10:31;;;;;;;4.45;3.80;;;10.80;99.90;;;;;;4990036;28;20069;-83
2022/06/17 04:12:57;;;;;;;4.57;3.60;;;10.90;99.90;;;;;;4991583;28;20114;-83
2022/06/17 04:15:48;;;;;;;5.05;3.25;;;10.90;99.90;;;;;;4990967;28;20078;-83
2022/06/17 04:18:13;;;;;;;4.03;3.15;;;11.00;99.90;;;;;;4984362;28;20018;-83
2022/06/17 04:20:55;;;;;;;3.90;3.20;;;11.00;99.90;;;;;;4989652;28;20025;-83
2022/06/17 04:23:25;;;;;;;4.68;3.10;;;11.10;99.90;;;;;;5012274;23;20057;-79
2022/06/17 04:26:21;;;;;;;3.10;2.50;;;11.10;99.90;;;;;;4990797;28;20475;-77
2022/06/17 04:28:54;;;;;;;3.20;2.90;;;11.20;99.90;;;;;;4987378;28;20069;-77
2022/06/17 04:31:23;;;;;;;3.25;2.72;;;11.30;99.90;;;;;;4990986;28;20419;-79
2022/06/17 04:33:53;;;;;;;4.93;3.20;;;11.40;99.90;;;;;;4991300;28;20022;-78
2022/06/17 04:36:35;;;;;;;3.65;3.25;;;11.50;99.90;;;;;;4990903;28;20019;-78
2022/06/17 04:39:04;;;;;;;3.40;3.05;;;11.60;99.90;;;;;;4990665;28;20018;-78
2022/06/17 04:41:36;;;;;;;6.55;3.17;;;11.60;99.90;;;;;;4990852;28;20030;-78
2022/06/17 04:44:04;;;;;;;4.10;2.90;;;11.80;99.90;;;;;;4990790;28;20026;-78
2022/06/17 04:46:38;;;;;;;3.75;3.10;;;11.90;99.90;;;;;;4991037;28;20363;-78
2022/06/17 04:49:05;;;;;;;3.50;2.95;;;12.00;99.90;;;;;;4990945;28;20028;-78
2022/06/17 04:51:33;;;;;;;4.28;2.90;;;12.00;99.90;;;;;;4990296;28;20030;-78
2022/06/17 04:53:59;;;;;;;4.10;2.55;;;12.10;99.90;;;;;;4993732;28;20536;-78
2022/06/17 04:56:32;;;;;;;5.72;2.67;;;12.20;99.90;;;;;;4990894;28;20113;-78
2022/06/17 04:58:58;;;;;;;3.15;2.50;;;12.30;99.90;;;;;;4990642;28;20023;-78
2022/06/17 05:01:26;;;;;;;4.55;2.92;;;12.30;99.90;;;;;;4990716;28;20093;-78
2022/06/17 05:03:59;;;;;;;3.08;2.40;;;12.40;99.90;;;;;;4991028;28;20038;-78
2022/06/17 05:06:25;;;;;;;4.68;2.80;;;12.40;99.90;;;;;;4984276;28;20026;-78
2022/06/17 05:09:02;;;;;;;2.90;2.15;;;12.40;99.90;;;;;;4990571;28;20034;-78
2022/06/17 05:11:41;;;;;;;3.65;2.45;;;12.50;99.90;;;;;;4994413;28;20018;-78
2022/06/17 05:14:41;;;;;;;8.73;3.08;;;12.60;99.90;;;;;;4994351;28;20026;-78
2022/06/17 05:17:07;;;;;;;5.10;2.63;;;12.80;99.90;;;;;;4994183;28;20023;-78
2022/06/17 05:19:33;;;;;;;3.10;2.72;;;13.00;99.90;;;;;;4994136;28;20026;-78
2022/06/17 05:22:00;;;;;;;3.00;2.42;;;13.20;99.90;;;;;;4994547;28;20030;-78
2022/06/17 05:24:27;;;;;;;2.97;2.40;;;13.30;99.90;;;;;;5018314;23;20057;-79
2022/06/17 05:26:53;;;;;;;2.65;2.22;;;13.40;99.90;;;;;;4993750;28;20076;-79
2022/06/17 05:29:19;;;;;;;4.30;2.10;;;13.50;99.90;;;;;;4994342;28;20050;-79
2022/06/17 05:31:49;;;;;;;4.50;2.85;;;13.50;99.90;;;;;;4994015;28;20105;-79
2022/06/17 05:34:16;;;;;;;3.20;2.50;;;13.60;99.90;;;;;;4993982;28;20019;-79
2022/06/17 05:36:42;;;;;;;3.10;2.80;;;13.80;99.90;;;;;;4993778;28;20500;-79
2022/06/17 05:39:08;;;;;;;5.22;2.22;;;13.90;99.90;;;;;;4992754;28;20053;-79
2022/06/17 05:41:34;;;;;;;2.55;2.20;;;14.00;99.90;;;;;;4993645;28;20779;-79
2022/06/17 05:44:00;;;;;;;4.15;2.15;;;14.10;99.90;;;;;;4993899;28;20050;-79
2022/06/17 05:46:26;;;;;;;3.03;2.13;;;14.20;99.90;;;;;;4994135;28;20054;-80
2022/06/17 05:48:51;;;;;;;2.47;2.08;;;14.30;99.90;;;;;;4993914;28;20056;-79
2022/06/17 05:51:17;;;;;;;3.75;2.13;;;14.40;99.90;;;;;;4993728;28;20022;-80
2022/06/17 05:53:43;;;;;;;3.80;1.90;;;14.40;99.90;;;;;;4996101;28;20145;-79
2022/06/17 05:56:08;;;;;;;3.45;2.90;;;14.50;99.90;;;;;;4994875;28;20024;-79
2022/06/17 05:58:34;;;;;;;2.92;2.30;;;14.60;99.90;;;;;;4993768;28;20026;-79
2022/06/17 06:01:00;;;;;;;3.30;2.58;;;14.70;99.90;;;;;;4994094;28;20022;-79
2022/06/17 06:03:28;;;;;;;2.60;2.17;;;14.70;99.90;;;;;;4993482;28;20545;-79
2022/06/17 06:05:54;;;;;;;4.57;2.58;;;14.80;99.90;;;;;;4993443;28;20472;-79
2022/06/17 06:08:20;;;;;;;2.90;2.60;;;15.00;99.90;;;;;;4991924;28;20026;-79
2022/06/17 06:10:46;;;;;;;2.85;2.50;;;15.10;99.90;;;;;;4993186;28;20025;-80
2022/06/17 06:13:19;;;;;;;2.67;2.47;;;15.30;99.90;;;;;;4993383;28;20026;-80
2022/06/17 06:15:46;;;;;;;4.03;2.70;;;15.50;99.90;;;;;;4993290;28;20026;-79
2022/06/17 06:18:20;;;;;;;3.83;2.90;;;15.80;99.90;;;;;;4993852;28;20026;-80
2022/06/17 06:20:48;;;;;;;4.57;2.80;;;16.00;99.90;;;;;;4992663;28;20109;-80
2022/06/17 06:23:14;;;;;;;4.00;2.20;;;16.20;99.90;;;;;;5018021;22;20050;-83
2022/06/17 06:25:40;;;;;;;4.38;3.40;;;16.40;99.90;;;;;;5011426;28;20026;-83
2022/06/17 06:28:17;;;;;;;6.50;2.50;;;16.70;99.90;;;;;;5011462;28;20095;-82
2022/06/17 06:31:12;;;;;;;4.28;2.17;;;16.90;99.90;;;;;;5012565;28;20021;-83
2022/06/17 06:33:40;;;;;;;4.30;2.47;;;17.10;99.90;;;;;;5011954;28;20081;-83
2022/06/17 06:36:06;;;;;;;4.80;2.10;;;17.50;99.90;;;;;;5012041;28;20471;-83
2022/06/17 06:38:32;;;;;;;3.47;2.50;;;18.00;99.90;;;;;;5008482;28;20049;-85
2022/06/17 06:40:58;;;;;;;3.78;2.70;;;18.40;99.90;;;;;;5012063;28;20044;-84
2022/06/17 06:43:23;;;;;;;4.85;3.42;;;18.60;99.90;;;;;;5012030;28;20038;-84
2022/06/17 06:45:52;;;;;;;4.82;2.90;;;18.80;99.90;;;;;;5011502;28;20026;-84
2022/06/17 06:48:22;;;;;;;4.90;3.60;;;18.90;99.90;;;;;;5003971;28;20747;-84
2022/06/17 06:50:48;;;;;;;4.17;3.00;;;19.00;99.90;;;;;;5008910;28;20491;-84
2022/06/17 06:53:14;;;;;;;7.90;4.80;;;19.10;99.90;;;;;;5005891;28;20037;-84
2022/06/17 06:55:40;;;;;;;5.53;4.93;;;19.20;99.90;;;;;;5012298;28;20022;-85
2022/06/17 06:58:21;;;;;;;8.75;4.82;;;19.40;99.90;;;;;;4994245;28;20022;-86
2022/06/17 07:00:50;;;;;;;7.63;5.53;;;19.50;99.90;;;;;;5010256;28;20022;-86
2022/06/17 07:03:17;;;;;;;5.68;4.25;;;19.60;99.90;;;;;;5011602;28;20120;-85
2022/06/17 07:05:47;;;;;;;9.20;6.68;;;19.60;99.90;;;;;;5010461;28;20153;-86
2022/06/17 07:08:15;;;;;;;11.43;7.75;;;19.40;99.90;;;;;;5009710;28;20025;-82
2022/06/17 07:10:42;;;;;;;8.55;6.07;;;19.20;99.90;;;;;;5011426;28;20021;-83
2022/06/17 07:13:08;;;;;;;6.03;5.35;;;19.10;99.90;;;;;;5010974;28;20104;-83
2022/06/17 07:15:40;;;;;;;6.53;5.75;;;19.20;99.90;;;;;;5004623;28;20022;-81
2022/06/17 07:18:10;;;;;;;7.38;5.80;;;19.30;99.90;;;;;;5003806;28;20029;-82
2022/06/17 07:20:42;;;;;;;6.80;6.10;;;19.40;99.90;;;;;;5007243;28;20121;-83
2022/06/17 07:23:34;;;;;;;9.45;8.25;;;19.60;99.90;;;;;;5028188;23;20227;-80
2022/06/17 07:26:09;;;;;;;18.33;7.70;;;19.60;99.90;;;;;;5007714;28;20030;-80
2022/06/17 07:28:35;;;;;;;14.50;6.97;;;19.80;99.90;;;;;;5009408;28;20030;-81
2022/06/17 07:31:01;;;;;;;17.42;8.10;;;20.10;99.90;;;;;;5011200;28;20025;-80
2022/06/17 07:33:28;;;;;;;9.68;6.35;;;20.30;99.90;;;;;;5009582;28;20485;-80
2022/06/17 07:35:57;;;;;;;9.98;7.18;;;20.60;99.90;;;;;;5010991;28;20018;-80
2022/06/17 07:41:13;;;;;;;10.02;6.53;;;21.10;99.90;;;;;;5005976;28;20029;-84
2022/06/17 07:43:39;;;;;;;7.25;6.07;;;21.30;99.90;;;;;;5004265;28;20033;-81
2022/06/17 07:46:05;;;;;;;8.57;6.38;;;21.50;99.90;;;;;;5009354;28;20455;-80
2022/06/17 07:48:32;;;;;;;9.60;5.95;;;21.70;99.90;;;;;;5010604;28;20034;-81
2022/06/17 07:50:58;;;;;;;10.27;5.32;;;22.10;99.90;;;;;;5009930;28;20022;-81
2022/06/17 07:53:26;;;;;;;12.90;5.60;;;22.30;99.90;;;;;;5010088;28;20018;-80
2022/06/17 07:55:53;;;;;;;7.22;5.15;;;22.70;99.90;;;;;;5010909;28;20018;-81
2022/06/17 07:58:19;;;;;;;10.27;5.00;;;23.10;99.90;;;;;;5011509;28;20058;-81
2022/06/17 08:00:46;;;;;;;9.93;6.22;;;23.40;99.90;;;;;;5011209;28;20069;-81
2022/06/17 08:03:15;;;;;;;8.40;5.65;;;23.60;95.80;;;;;;5010669;28;20029;-81
2022/06/17 08:05:44;;;;;;;9.02;5.60;;;23.70;98.30;;;;;;5011177;28;20025;-81
2022/06/17 08:08:11;;;;;;;9.63;5.70;;;23.90;97.30;;;;;;5010946;28;20122;-81
2022/06/17 08:10:38;;;;;;;10.40;4.97;;;24.00;91.30;;;;;;5011026;28;20080;-81
2022/06/17 08:13:06;;;;;;;14.00;6.60;;;24.10;93.90;;;;;;5011135;28;20448;-81
2022/06/17 08:15:32;;;;;;;6.43;4.90;;;24.10;85.70;;;;;;5011436;28;20037;-81
2022/06/17 08:17:59;;;;;;;9.60;5.93;;;24.40;93.00;;;;;;5011216;28;20605;-80
2022/06/17 08:20:29;;;;;;;7.45;4.97;;;24.60;81.50;;;;;;5011250;28;20018;-80
2022/06/17 08:22:54;;;;;;;7.45;5.00;;;24.90;84.40;;;;;;5032457;23;20060;-81
2022/06/17 08:25:21;;;;;;;8.07;5.50;;;25.30;85.10;;;;;;5012096;28;20068;-81
2022/06/17 08:27:49;;;;;;;6.90;5.18;;;25.50;77.30;;;;;;5011921;28;20033;-81
2022/06/17 08:30:18;;;;;;;8.48;5.22;;;25.90;77.40;;;;;;5011641;28;20387;-81
2022/06/17 08:32:48;;;;;;;5.53;4.88;;;25.90;73.00;;;;;;5011856;28;20046;-82
2022/06/17 08:35:17;;;;;;;6.13;4.65;;;26.10;69.60;;;;;;4993664;28;20534;-81
2022/06/17 08:37:44;;;;;;;7.20;5.30;;;26.10;68.00;;;;;;4992043;28;20037;-82
2022/06/17 08:40:34;;;;;;;6.88;5.25;;;26.20;65.60;;;;;;4991882;28;20026;-81
2022/06/17 08:43:27;;;;;;;5.63;4.45;;;26.00;64.50;;;;;;4992451;28;20157;-81
2022/06/17 08:46:14;;;;;;;5.55;4.30;;;26.40;68.10;;;;;;4995403;28;20041;-82
2022/06/17 08:49:00;;;;;;;7.93;4.50;;;26.70;65.30;;;;;;4996156;28;20372;-82
2022/06/17 08:51:26;;;;;;;7.53;4.40;;;27.10;65.30;;;;;;4995848;28;20030;-82
2022/06/17 08:54:15;;;;;;;6.38;4.82;;;27.60;63.20;;;;;;4997048;28;20025;-83
2022/06/17 08:56:49;;;;;;;4.38;3.92;;;27.30;61.00;;;;;;4995894;28;20511;-83
2022/06/17 08:59:39;;;;;;;4.68;4.20;;;27.20;62.20;;;;;;4995839;28;20026;-83
2022/06/17 09:02:35;;;;;;;5.93;4.43;;;27.20;66.50;;;;;;4995732;28;20476;-82
2022/06/17 09:05:28;;;;;;;6.43;5.65;;;27.40;61.20;;;;;;4995322;28;20386;-83
2022/06/17 09:08:14;;;;;;;5.20;4.18;;;27.70;61.10;;;;;;4995541;28;20169;-83
2022/06/17 09:10:45;;;;;;;6.93;4.88;;;27.50;63.10;;;;;;4995279;28;20034;-82
2022/06/17 09:13:32;;;;;;;4.82;3.60;;;27.70;61.00;;;;;;4995165;28;20069;-82
2022/06/17 09:16:17;;;;;;;6.63;5.03;;;28.20;62.50;;;;;;4995244;28;20026;-82
2022/06/17 09:18:48;;;;;;;7.22;5.43;;;29.40;59.60;;;;;;4995442;28;20072;-83
2022/06/17 09:21:18;;;;;;;9.57;5.88;;;30.40;55.90;;;;;;4995333;28;20035;-83
2022/06/17 09:23:44;;;;;;;5.20;4.70;;;30.20;55.20;;;;;;5022622;23;20590;-82
2022/06/17 09:26:22;;;;;;;5.28;4.07;;;31.20;52.50;;;;;;5014665;28;20093;-81
2022/06/17 09:29:06;;;;;;;8.27;5.07;;;32.00;54.20;;;;;;5015096;28;20144;-82
2022/06/17 09:31:41;;;;;;;7.07;5.90;;;32.00;50.20;;;;;;5014792;28;20018;-81
2022/06/17 09:34:35;;;;;;;8.98;6.00;;;30.90;48.50;;;;;;5004747;28;20031;-80
2022/06/17 09:37:28;;;;;;;7.35;5.47;;;30.50;50.00;;;;;;4991696;28;20499;-81
2022/06/17 09:40:00;;;;;;;6.13;5.50;;;30.00;52.30;;;;;;4994713;28;20033;-81
2022/06/17 09:42:35;;;;;;;5.57;4.55;;;30.60;52.20;;;;;;4994645;28;20512;-81
2022/06/17 09:45:14;;;;;;;5.03;3.80;;;31.60;52.40;;;;;;4993292;28;20018;-81
2022/06/17 09:47:56;;;;;;;4.60;3.53;;;32.70;48.20;;;;;;4993239;28;20384;-80
2022/06/17 09:50:33;;;;;;;4.93;3.00;;;32.90;47.30;;;;;;4994774;28;20022;-80
2022/06/17 09:53:06;;;;;;;3.92;3.15;;;33.20;47.30;;;;;;4994613;28;20090;-80
2022/06/17 09:55:35;;;;;;;3.83;3.40;;;32.90;49.70;;;;;;5011778;28;20067;-81
2022/06/17 09:58:11;;;;;;;4.53;3.13;;;32.30;48.90;;;;;;5013291;28;20032;-80
2022/06/17 10:00:43;;;;;;;6.95;3.50;;;31.50;49.20;;;;;;5014087;28;20030;-81
2022/06/17 10:03:26;;;;;;;3.78;3.38;;;30.60;51.80;;;;;;5013802;28;20034;-80
2022/06/17 10:06:11;;;;;;;5.57;4.18;;;30.10;54.00;;;;;;5013933;28;20030;-81
2022/06/17 10:08:39;;;;;;;4.25;3.03;;;30.40;52.50;;;;;;5013822;28;20030;-81
2022/06/17 10:11:07;;;;;;;5.25;2.53;;;31.60;53.90;;;;;;5013869;28;20021;-80
2022/06/17 10:13:49;;;;;;;4.80;2.83;;;33.20;50.50;;;;;;5013671;28;20022;-80
2022/06/17 10:19:52;;;;;;;4.18;3.00;;;34.60;45.90;;;;;;5013823;28;20387;-82
2022/06/17 10:25:52;;;;;;;3.67;2.70;;;35.40;44.40;;;;;;5030560;28;20076;-80
2022/06/17 10:28:54;;;;;;;1.95;1.83;;;35.70;42.80;;;;;;5033515;28;20747;-81
2022/06/17 10:31:38;;;;;;;4.13;2.20;;;36.20;43.10;;;;;;5033454;28;20026;-80
2022/06/17 10:34:22;;;;;;;4.70;1.95;;;36.90;42.80;;;;;;5033329;28;20025;-80
2022/06/17 10:36:52;;;;;;;2.88;1.90;;;37.20;41.10;;;;;;5033305;28;20049;-79
2022/06/17 10:39:19;;;;;;;2.30;1.97;;;37.40;41.60;;;;;;5033118;28;20031;-80
2022/06/17 10:41:46;;;;;;;2.88;2.03;;;37.50;39.90;;;;;;5033021;28;20266;-80
2022/06/17 10:44:14;;;;;;;3.03;2.22;;;37.80;38.40;;;;;;5031772;28;20109;-81
2022/06/17 10:46:45;;;;;;;2.85;1.70;;;36.70;38.30;;;;;;5032832;28;20159;-79
2022/06/17 10:49:33;;;;;;;;;;;36.90;40.10;;;;;;5033341;28;20031;-81
2022/06/17 10:52:02;;;;;;;1.60;1.50;;;36.50;38.90;;;;;;5032987;28;19916;-80
2022/06/17 10:54:31;;;;;;;2.97;1.90;;;36.80;40.40;;;;;;5031268;28;20176;-82
2022/06/17 10:57:21;;;;;;;4.72;1.75;;;36.80;39.10;;;;;;5033042;28;20075;-80
2022/06/17 10:59:47;;;;;;;3.93;1.70;;;37.10;41.10;;;;;;5033088;28;20479;-79
2022/06/17 11:02:32;;;;;;;2.75;1.80;;;36.90;40.20;;;;;;5032656;28;20352;-80
2022/06/17 11:05:01;;;;;;;3.70;1.73;;;36.50;39.80;;;;;;5032839;28;20021;-80
2022/06/17 11:07:28;;;;;;;3.65;1.70;;;36.40;39.90;;;;;;5032359;28;20049;-81
2022/06/17 11:10:05;;;;;;;1.67;1.58;;;36.20;39.70;;;;;;5031667;28;20033;-80
2022/06/17 11:12:42;;;;;;;4.05;1.75;;;37.00;38.60;;;;;;5025081;28;20030;-84
2022/06/17 11:15:36;;;;;;;1.75;1.23;;;37.50;39.10;;;;;;5027306;28;20025;-82
2022/06/17 11:18:08;;;;;;;4.97;1.80;;;37.90;38.20;;;;;;5027835;28;20062;-83
2022/06/17 11:20:37;;;;;;;2.72;1.95;;;38.10;37.10;;;;;;5025841;28;20057;-82
2022/06/17 11:23:15;;;;;;;3.33;1.90;;;38.50;36.40;;;;;;5046942;23;20026;-81
2022/06/17 11:25:42;;;;;;;1.80;1.50;;;38.80;37.00;;;;;;4984707;28;20031;-82
2022/06/17 11:28:11;;;;;;;3.35;1.70;;;39.40;35.00;;;;;;4991452;28;20018;-80
2022/06/17 11:30:48;;;;;;;1.75;1.52;;;39.10;34.20;;;;;;4990682;28;20018;-85
2022/06/17 11:33:33;;;;;;;1.50;1.38;;;38.70;37.00;;;;;;4992019;28;20475;-84
2022/06/17 11:36:04;;;;;;;2.38;1.20;;;39.90;40.20;;;;;;4987917;28;20026;-85
2022/06/17 11:38:32;;;;;;;3.58;1.17;;;40.30;36.00;;;;;;4991750;28;20026;-83
2022/06/17 11:41:00;;;;;;;2.72;1.30;;;41.70;37.40;;;;;;4992053;28;20476;-85
2022/06/17 11:43:31;;;;;;;2.25;1.48;;;42.00;34.20;;;;;;4991910;28;20034;-87
2022/06/17 11:46:04;;;;;;;;;;;42.30;31.70;;;;;;4992419;28;20019;-85
2022/06/17 11:48:30;;;;;;;1.92;1.40;;;41.70;31.80;;;;;;4986206;28;19908;-84
2022/06/17 11:51:15;;;;;;;2.25;1.20;;;42.30;33.80;;;;;;4991519;28;20010;-84
2022/06/17 11:53:56;;;;;;;2.17;1.27;;;42.80;32.00;;;;;;4990949;28;20015;-84
2022/06/17 11:56:39;;;;;;;1.17;1.05;;;42.70;31.40;;;;;;4991450;28;20061;-86
2022/06/17 11:59:25;;;;;;;2.13;1.02;;;43.10;32.10;;;;;;4990273;28;20026;-84
2022/06/17 12:01:53;;;;;;;1.52;1.10;;;43.40;31.10;;;;;;4991641;28;20010;-86
2022/06/17 12:04:45;;;;;;;1.75;1.20;;;43.30;29.20;;;;;;4991638;28;20089;-84
2022/06/17 12:07:43;;;;;;;2.75;1.20;;;43.10;31.70;;;;;;4991440;28;20026;-82
2022/06/17 12:10:21;;;;;;;2.00;1.35;;;42.30;30.40;;;;;;4973677;28;20023;-84
2022/06/17 12:12:52;;;;;;;1.85;1.00;;;41.80;30.20;;;;;;4990838;28;20027;-84
2022/06/17 12:15:42;;;;;;;1.45;1.15;;;42.10;31.60;;;;;;4989933;28;20049;-84
2022/06/17 12:18:25;;;;;;;3.58;1.27;;;41.70;32.80;;;;;;4990837;28;20080;-88
2022/06/17 12:21:13;;;;;;;2.35;1.45;;;41.70;31.20;;;;;;4990540;28;20531;-85
2022/06/17 12:23:46;;;;;;;3.17;1.20;;;42.10;32.60;;;;;;5015848;23;20100;-87
2022/06/17 12:26:23;;;;;;;3.28;1.15;;;42.60;34.40;;;;;;4991607;28;20026;-80
2022/06/17 12:29:14;;;;;;;1.35;1.23;;;42.60;30.60;;;;;;4990396;28;20470;-87
2022/06/17 12:32:09;;;;;;;3.08;1.35;;;43.00;30.80;;;;;;4990679;28;20097;-84
2022/06/17 12:34:55;;;;;;;2.08;1.13;;;43.50;32.80;;;;;;4987386;28;20040;-85
2022/06/17 12:37:36;;;;;;;2.25;1.20;;;44.70;29.40;;;;;;4979601;28;20025;-84
2022/06/17 12:40:20;;;;;;;1.63;1.33;;;44.10;30.00;;;;;;4985798;28;20029;-85
2022/06/17 12:43:02;;;;;;;1.83;1.35;;;43.80;32.00;;;;;;4987586;28;20034;-86
2022/06/17 12:45:37;;;;;;;5.55;1.60;;;43.90;29.70;;;;;;4986882;28;20034;-86
2022/06/17 12:48:14;;;;;;;5.00;1.35;;;43.50;29.50;;;;;;4984625;28;20019;-86
2022/06/17 12:54:14;;;;;;;1.83;1.23;;;43.80;28.80;;;;;;4990367;28;20490;-88
2022/06/17 12:56:40;;;;;;;4.97;1.30;;;43.90;29.90;;;;;;4984526;28;20483;-85
2022/06/17 12:59:18;;;;;;;1.30;1.20;;;44.20;29.30;;;;;;4989026;28;20022;-85
2022/06/17 13:02:07;;;;;;;3.10;1.30;;;44.40;29.40;;;;;;4989115;28;20027;-84
2022/06/17 13:04:55;;;;;;;1.98;1.33;;;44.20;30.30;;;;;;4978076;28;20042;-86
2022/06/17 13:07:45;;;;;;;1.67;1.38;;;44.40;30.50;;;;;;5000093;28;20101;-87
2022/06/17 13:10:41;;;;;;;1.70;1.20;;;43.80;28.70;;;;;;4990843;28;20014;-86
2022/06/17 13:13:27;;;;;;;1.38;1.27;;;43.10;28.70;;;;;;4986690;28;20064;-88
2022/06/17 13:16:01;;;;;;;3.13;1.52;;;42.30;31.30;;;;;;4985996;28;20050;-84
2022/06/17 13:18:29;;;;;;;1.90;1.40;;;40.90;30.50;;;;;;4980912;28;20031;-83
2022/06/17 13:21:26;;;;;;;2.47;1.33;;;41.40;30.60;;;;;;4983214;28;20042;-86
2022/06/17 13:24:15;;;;;;;1.77;1.30;;;42.30;30.00;;;;;;4983011;28;20126;-85
2022/06/17 13:26:46;;;;;;;1.60;1.50;;;42.80;30.80;;;;;;4983481;28;20035;-87
2022/06/17 13:29:32;;;;;;;1.88;1.20;;;41.90;31.40;;;;;;4982524;28;20014;-84
2022/06/17 13:32:21;;;;;;;2.17;1.35;;;42.30;30.10;;;;;;4986891;28;20057;-84
2022/06/17 13:35:04;;;;;;;2.47;1.15;;;42.30;30.00;;;;;;4984564;28;20133;-86